createdAt,value
2019-05-20T00:01:11.258Z,15.60
2019-05-20T00:03:39.127Z,15.60
2019-05-20T00:06:07.300Z,15.60
2019-05-20T00:08:35.174Z,15.50
2019-05-20T00:11:03.171Z,15.40
2019-05-20T00:13:31.007Z,15.40
2019-05-20T00:15:59.974Z,15.30
2019-05-20T00:18:27.933Z,15.30
2019-05-20T00:20:55.842Z,15.30
2019-05-20T00:23:23.931Z,15.20
2019-05-20T00:25:51.798Z,15.20
2019-05-20T00:28:19.751Z,15.20
2019-05-20T00:30:49.905Z,15.20
2019-05-20T00:33:17.919Z,15.30
2019-05-20T00:35:45.745Z,15.30
2019-05-20T00:38:13.609Z,15.30
2019-05-20T00:40:41.599Z,15.30
2019-05-20T00:43:09.509Z,15.30
2019-05-20T00:45:37.510Z,15.30
2019-05-20T00:48:05.395Z,15.30
2019-05-20T00:50:34.166Z,15.30
2019-05-20T00:53:03.346Z,15.30
2019-05-20T00:55:31.656Z,15.20
2019-05-20T00:57:59.790Z,15.20
2019-05-20T01:00:27.661Z,15.10
2019-05-20T01:02:57.183Z,15.10
2019-05-20T01:05:25.034Z,15.00
2019-05-20T01:07:52.950Z,15.00
2019-05-20T01:10:21.949Z,15.00
2019-05-20T01:12:49.794Z,15.00
2019-05-20T01:15:17.654Z,14.90
2019-05-20T01:17:45.704Z,14.90
2019-05-20T01:20:13.743Z,14.90
2019-05-20T01:22:42.799Z,14.90
2019-05-20T01:25:12.210Z,14.90
2019-05-20T01:27:40.285Z,14.80
2019-05-20T01:30:08.360Z,14.80
2019-05-20T01:32:36.702Z,14.80
2019-05-20T01:35:06.167Z,14.80
2019-05-20T01:37:34.223Z,14.80
2019-05-20T01:40:02.082Z,14.70
2019-05-20T01:42:29.896Z,14.70
2019-05-20T01:44:59.250Z,14.70
2019-05-20T01:47:27.234Z,14.70
2019-05-20T01:49:55.169Z,14.70
2019-05-20T01:52:22.990Z,14.60
2019-05-20T01:54:50.841Z,14.70
2019-05-20T01:57:18.700Z,14.60
2019-05-20T01:59:46.607Z,14.60
2019-05-20T02:02:17.043Z,14.60
2019-05-20T02:04:44.958Z,14.60
2019-05-20T02:07:15.658Z,14.60
2019-05-20T02:09:43.501Z,14.60
2019-05-20T02:12:11.323Z,14.60
2019-05-20T02:14:40.829Z,14.60
2019-05-20T02:17:08.632Z,14.60
2019-05-20T02:19:36.517Z,14.60
2019-05-20T02:22:04.382Z,14.50
2019-05-20T02:24:33.635Z,14.50
2019-05-20T02:27:01.535Z,14.50
2019-05-20T02:29:30.817Z,14.40
2019-05-20T02:31:59.761Z,14.40
2019-05-20T02:34:27.557Z,14.30
2019-05-20T02:36:55.499Z,14.30
2019-05-20T02:39:26.446Z,14.30
2019-05-20T02:41:54.165Z,14.20
2019-05-20T02:44:22.090Z,14.20
2019-05-20T02:46:50.174Z,14.20
2019-05-20T02:49:17.984Z,14.20
2019-05-20T02:51:47.660Z,14.20
2019-05-20T02:54:15.656Z,14.20
2019-05-20T02:56:43.485Z,14.20
2019-05-20T02:59:11.501Z,14.20
2019-05-20T03:01:39.350Z,14.30
2019-05-20T03:04:12.352Z,14.30
2019-05-20T03:06:36.650Z,14.40
2019-05-20T03:09:05.095Z,14.40
2019-05-20T03:11:33.888Z,14.40
2019-05-20T03:14:02.753Z,14.50
2019-05-20T03:16:30.587Z,14.50
2019-05-20T03:18:58.761Z,14.60
2019-05-20T03:21:28.551Z,14.60
2019-05-20T03:23:56.201Z,14.70
2019-05-20T03:26:24.076Z,14.70
2019-05-20T03:28:51.921Z,14.70
2019-05-20T03:31:19.881Z,14.70
2019-05-20T03:33:47.701Z,14.70
2019-05-20T03:36:15.571Z,14.80
2019-05-20T03:38:43.915Z,14.80
2019-05-20T03:41:12.885Z,14.90
2019-05-20T03:43:40.871Z,14.80
2019-05-20T03:46:10.422Z,14.90
2019-05-20T03:48:38.401Z,14.90
2019-05-20T03:51:06.335Z,15.00
2019-05-20T03:53:34.376Z,15.00
2019-05-20T03:56:02.292Z,15.00
2019-05-20T03:58:32.331Z,15.10
2019-05-20T04:01:00.322Z,15.20
2019-05-20T04:03:28.397Z,15.20
2019-05-20T04:05:56.362Z,15.30
2019-05-20T04:08:25.439Z,15.30
2019-05-20T04:10:53.510Z,15.40
2019-05-20T04:13:21.586Z,15.50
2019-05-20T04:15:49.997Z,15.60
2019-05-20T04:18:18.000Z,15.70
2019-05-20T04:20:47.764Z,15.80
2019-05-20T04:23:15.929Z,15.90
2019-05-20T04:25:44.085Z,16.00
2019-05-20T04:28:11.997Z,16.10
2019-05-20T04:30:40.254Z,16.30
2019-05-20T04:33:09.356Z,16.40
2019-05-20T04:35:37.353Z,16.50
2019-05-20T04:38:05.431Z,16.60
2019-05-20T04:40:33.526Z,16.70
2019-05-20T04:43:02.927Z,16.80
2019-05-20T04:45:31.004Z,16.90
2019-05-20T04:47:59.083Z,17.00
2019-05-20T04:50:27.492Z,17.10
2019-05-20T04:52:55.599Z,17.20
2019-05-20T04:55:28.679Z,17.40
2019-05-20T04:57:58.609Z,17.50
2019-05-20T05:03:34.586Z,17.60
2019-05-20T05:06:04.727Z,17.80
2019-05-20T05:08:32.994Z,18.00
2019-05-20T05:11:02.710Z,18.10
2019-05-20T05:13:56.691Z,18.20
2019-05-20T05:16:24.999Z,18.30
2019-05-20T05:19:03.287Z,18.40
2019-05-20T05:21:35.016Z,18.50
2019-05-20T05:24:06.708Z,18.60
2019-05-20T05:26:34.594Z,18.70
2019-05-20T05:29:02.445Z,18.80
2019-05-20T05:31:30.519Z,19.00
2019-05-20T05:34:01.240Z,19.10
2019-05-20T05:36:29.176Z,19.20
2019-05-20T05:38:57.480Z,19.40
2019-05-20T05:41:25.471Z,19.50
2019-05-20T05:46:36.438Z,19.70
2019-05-20T05:49:17.256Z,19.80
2019-05-20T05:51:45.387Z,20.00
2019-05-20T05:54:13.551Z,20.10
2019-05-20T05:56:41.920Z,20.20
2019-05-20T05:59:11.648Z,20.30
2019-05-20T06:04:28.921Z,20.50
2019-05-20T06:06:56.834Z,20.50
2019-05-20T06:09:30.144Z,20.60
2019-05-20T06:11:59.848Z,20.70
2019-05-20T06:14:27.729Z,20.80
2019-05-20T06:16:57.264Z,21.00
2019-05-20T06:19:30.860Z,21.00
2019-05-20T06:22:00.381Z,21.10
2019-05-20T06:24:29.910Z,21.20
2019-05-20T16:56:03.938Z,22.50
2019-05-20T16:58:31.971Z,22.40
2019-05-20T17:00:59.971Z,22.40
2019-05-20T17:03:28.003Z,22.50
2019-05-20T17:05:55.972Z,22.50
2019-05-20T17:08:25.731Z,22.50
2019-05-20T17:10:57.278Z,22.40
2019-05-20T17:13:25.401Z,22.20
2019-05-20T17:15:53.517Z,22.20
2019-05-20T17:18:21.755Z,22.10
2019-05-20T17:20:52.016Z,22.10
2019-05-20T17:23:22.426Z,22.10
2019-05-20T17:25:50.995Z,22.10
2019-05-20T17:28:22.089Z,22.10
2019-05-20T17:30:50.076Z,22.20
2019-05-20T17:33:19.426Z,22.20
2019-05-20T17:35:47.793Z,22.30
2019-05-20T17:38:15.844Z,22.30
2019-05-20T17:40:43.877Z,22.30
2019-05-20T17:43:12.035Z,22.30
2019-05-20T17:45:40.038Z,22.30
2019-05-20T17:48:08.027Z,22.20
2019-05-20T17:50:36.614Z,22.20
2019-05-20T17:53:04.605Z,22.10
2019-05-20T17:55:36.562Z,22.00
2019-05-20T17:58:04.681Z,21.90
2019-05-20T18:00:34.283Z,21.80
2019-05-20T18:03:03.849Z,21.70
2019-05-20T18:05:34.912Z,21.60
2019-05-20T18:08:02.938Z,21.50
2019-05-20T18:10:31.495Z,21.40
2019-05-20T18:12:59.592Z,21.30
2019-05-20T18:15:27.819Z,21.20
2019-05-20T18:17:57.014Z,21.10
2019-05-20T18:20:25.234Z,21.00
2019-05-20T18:23:00.771Z,20.80
2019-05-20T18:25:30.138Z,20.80
2019-05-20T18:27:59.551Z,20.70
2019-05-20T18:30:28.872Z,20.60
2019-05-20T18:32:59.874Z,20.60
2019-05-20T18:35:30.541Z,20.50
2019-05-20T18:37:58.608Z,20.50
2019-05-20T18:40:26.586Z,20.40
2019-05-20T18:42:54.959Z,20.30
2019-05-20T18:45:23.032Z,20.20
2019-05-20T18:47:51.091Z,20.20
2019-05-20T18:50:19.393Z,20.10
2019-05-20T18:52:47.677Z,20.00
2019-05-20T18:55:15.640Z,19.90
2019-05-20T18:57:43.727Z,19.80
2019-05-20T19:00:12.600Z,19.70
2019-05-20T19:02:40.518Z,19.70
2019-05-20T19:05:08.584Z,19.60
2019-05-20T19:07:36.830Z,19.50
2019-05-20T19:10:05.813Z,19.40
2019-05-20T19:12:33.746Z,19.40
2019-05-20T19:15:01.687Z,19.30
2019-05-20T19:17:29.768Z,19.20
2019-05-20T19:19:57.753Z,19.20
2019-05-20T19:22:25.701Z,19.20
2019-05-20T19:24:53.900Z,19.10
2019-05-20T19:27:21.841Z,19.10
2019-05-20T19:29:49.695Z,19.10
2019-05-20T19:32:19.026Z,19.00
2019-05-20T19:34:47.009Z,18.90
2019-05-20T19:37:15.290Z,18.90
2019-05-20T19:39:44.788Z,18.90
2019-05-20T19:42:12.820Z,18.90
2019-05-20T19:44:40.919Z,18.90
2019-05-20T19:47:08.913Z,18.80
2019-05-20T19:49:37.321Z,18.80
2019-05-20T19:52:05.338Z,18.80
2019-05-20T19:54:33.192Z,18.80
2019-05-20T19:57:01.055Z,18.80
2019-05-20T19:59:28.867Z,18.70
2019-05-20T20:01:56.742Z,18.70
2019-05-20T20:04:26.031Z,18.70
2019-05-20T20:06:54.216Z,18.60
2019-05-20T20:09:22.062Z,18.60
2019-05-20T20:11:50.132Z,18.60
2019-05-20T20:14:18.225Z,18.60
2019-05-20T20:16:46.088Z,18.60
2019-05-20T20:19:13.964Z,18.60
2019-05-20T20:21:42.129Z,18.60
2019-05-20T20:24:13.477Z,18.60
2019-05-20T20:26:42.569Z,18.60
2019-05-20T20:29:11.665Z,18.50
2019-05-20T20:31:43.194Z,18.50
2019-05-20T20:34:12.016Z,18.50
2019-05-20T20:36:39.911Z,18.50
2019-05-20T20:39:08.067Z,18.40
2019-05-20T20:41:36.054Z,18.40
2019-05-20T20:44:05.112Z,18.40
2019-05-20T20:46:33.504Z,18.30
2019-05-20T20:49:01.441Z,18.30
2019-05-20T20:51:29.313Z,18.30
2019-05-20T20:53:57.594Z,18.20
2019-05-20T20:56:25.963Z,18.20
2019-05-20T20:58:54.231Z,18.20
2019-05-20T21:01:22.094Z,18.20
2019-05-20T21:03:49.977Z,18.10
2019-05-20T21:06:18.134Z,18.10
2019-05-20T21:08:46.721Z,18.10
2019-05-20T21:11:14.669Z,18.10
2019-05-20T21:13:44.161Z,18.00
2019-05-20T21:16:12.198Z,18.00
2019-05-20T21:18:40.229Z,18.00
2019-05-20T21:21:08.298Z,17.90
2019-05-20T21:23:38.103Z,17.90
2019-05-20T21:26:06.234Z,17.80
2019-05-20T21:28:34.338Z,17.80
2019-05-20T21:31:02.424Z,17.80
2019-05-20T21:33:30.366Z,17.70
2019-05-20T21:35:58.440Z,17.60
2019-05-20T21:38:26.363Z,17.60
2019-05-20T21:40:54.319Z,17.50
2019-05-20T21:43:22.345Z,17.50
2019-05-20T21:45:52.104Z,17.40
2019-05-20T21:48:23.886Z,17.30
2019-05-20T21:50:55.211Z,17.20
2019-05-20T21:53:28.408Z,17.20
2019-05-20T21:56:00.712Z,17.10
2019-05-20T21:58:28.793Z,16.90
2019-05-20T22:00:59.782Z,16.90
2019-05-20T22:03:29.353Z,16.90
2019-05-20T22:05:57.348Z,16.90
2019-05-20T22:08:25.353Z,16.80
2019-05-20T22:10:53.357Z,16.80
2019-05-20T22:13:21.260Z,16.70
2019-05-20T22:15:50.672Z,16.70
2019-05-20T22:18:19.554Z,16.70
2019-05-20T22:20:50.697Z,16.60
2019-05-20T22:23:27.512Z,16.60
2019-05-20T22:25:55.845Z,16.60
2019-05-20T22:28:23.834Z,16.50
2019-05-20T22:30:51.820Z,16.50
2019-05-20T22:33:19.827Z,16.40
2019-05-20T22:35:47.820Z,16.30
2019-05-20T22:38:15.845Z,16.30
2019-05-20T22:40:43.996Z,16.30
2019-05-20T22:43:11.919Z,16.20
2019-05-20T22:45:44.512Z,16.20
2019-05-20T22:48:13.788Z,16.10
2019-05-20T22:50:41.825Z,16.10
2019-05-20T22:53:10.055Z,16.10
2019-05-20T22:55:38.211Z,16.00
2019-05-20T22:58:07.325Z,16.10
2019-05-20T23:00:35.740Z,16.10
2019-05-20T23:03:03.742Z,16.10
2019-05-20T23:05:32.810Z,16.10
2019-05-20T23:08:00.961Z,16.10
2019-05-20T23:10:29.113Z,16.10
2019-05-20T23:12:57.011Z,16.10
2019-05-20T23:15:26.273Z,16.10
2019-05-20T23:17:54.271Z,16.00
2019-05-20T23:20:22.356Z,16.10
2019-05-20T23:22:50.293Z,16.10
2019-05-20T23:25:18.206Z,16.00
2019-05-20T23:27:46.195Z,16.00
2019-05-20T23:30:14.097Z,16.00
2019-05-20T23:32:42.092Z,16.00
2019-05-20T23:35:12.067Z,15.90
2019-05-20T23:37:45.156Z,15.80
2019-05-20T23:40:13.390Z,15.80
2019-05-20T23:42:43.027Z,15.70
2019-05-20T23:45:11.891Z,15.70
2019-05-20T23:47:40.559Z,15.70
2019-05-20T23:50:10.208Z,15.70
2019-05-20T23:52:39.729Z,15.70
2019-05-20T23:55:11.783Z,15.70
2019-05-20T23:57:39.824Z,15.60
